sensor_id;sensor_type;location;lat;lon;timestamp;P1;durP1;ratioP1;P2;durP2;ratioP2
36415;SDS011;22447;44.530;18.620;2022-10-16T00:00:37;45.72;;;28.13;;
36415;SDS011;22447;44.530;18.620;2022-10-16T00:03:05;49.30;;;27.85;;
36415;SDS011;22447;44.530;18.620;2022-10-16T00:05:32;47.95;;;25.63;;
36415;SDS011;22447;44.530;18.620;2022-10-16T00:08:02;46.20;;;26.05;;
36415;SDS011;22447;44.530;18.620;2022-10-16T00:10:28;43.85;;;25.13;;
36415;SDS011;22447;44.530;18.620;2022-10-16T00:12:54;48.55;;;26.65;;
36415;SDS011;22447;44.530;18.620;2022-10-16T00:15:20;50.35;;;28.13;;
36415;SDS011;22447;44.530;18.620;2022-10-16T00:17:46;44.25;;;26.13;;
36415;SDS011;22447;44.530;18.620;2022-10-16T00:20:12;52.15;;;27.58;;
36415;SDS011;22447;44.530;18.620;2022-10-16T00:22:38;45.60;;;25.35;;
36415;SDS011;22447;44.530;18.620;2022-10-16T00:25:05;47.53;;;25.00;;
36415;SDS011;22447;44.530;18.620;2022-10-16T00:27:31;50.13;;;25.83;;
36415;SDS011;22447;44.530;18.620;2022-10-16T00:29:58;40.00;;;24.08;;
36415;SDS011;22447;44.530;18.620;2022-10-16T00:32:23;45.10;;;26.00;;
36415;SDS011;22447;44.530;18.620;2022-10-16T00:34:49;46.22;;;25.02;;
36415;SDS011;22447;44.530;18.620;2022-10-16T00:37:15;45.05;;;24.75;;
36415;SDS011;22447;44.530;18.620;2022-10-16T00:39:41;43.88;;;26.05;;
36415;SDS011;22447;44.530;18.620;2022-10-16T00:42:09;48.00;;;26.88;;
36415;SDS011;22447;44.530;18.620;2022-10-16T00:44:43;54.38;;;29.00;;
36415;SDS011;22447;44.530;18.620;2022-10-16T00:47:11;55.05;;;30.90;;
36415;SDS011;22447;44.530;18.620;2022-10-16T00:49:50;58.88;;;31.25;;
36415;SDS011;22447;44.530;18.620;2022-10-16T00:52:18;54.38;;;30.13;;
36415;SDS011;22447;44.530;18.620;2022-10-16T00:54:45;54.53;;;32.03;;
36415;SDS011;22447;44.530;18.620;2022-10-16T00:57:13;60.78;;;32.53;;
36415;SDS011;22447;44.530;18.620;2022-10-16T00:59:39;60.13;;;32.08;;
36415;SDS011;22447;44.530;18.620;2022-10-16T01:02:07;54.88;;;31.48;;
36415;SDS011;22447;44.530;18.620;2022-10-16T01:04:37;59.88;;;30.88;;
36415;SDS011;22447;44.530;18.620;2022-10-16T01:12:50;53.20;;;28.45;;
36415;SDS011;22447;44.530;18.620;2022-10-16T01:20:31;42.20;;;24.80;;
36415;SDS011;22447;44.530;18.620;2022-10-16T01:28:26;48.17;;;25.17;;
36415;SDS011;22447;44.530;18.620;2022-10-16T01:30:58;49.38;;;25.73;;
36415;SDS011;22447;44.530;18.620;2022-10-16T01:33:28;45.42;;;26.40;;
36415;SDS011;22447;44.530;18.620;2022-10-16T01:36:06;45.70;;;25.77;;
36415;SDS011;22447;44.530;18.620;2022-10-16T01:38:38;41.75;;;24.60;;
36415;SDS011;22447;44.530;18.620;2022-10-16T01:41:08;47.50;;;25.70;;
36415;SDS011;22447;44.530;18.620;2022-10-16T01:43:39;46.20;;;25.98;;
36415;SDS011;22447;44.530;18.620;2022-10-16T01:46:11;53.45;;;28.17;;
36415;SDS011;22447;44.530;18.620;2022-10-16T01:48:41;48.50;;;26.33;;
36415;SDS011;22447;44.530;18.620;2022-10-16T01:51:08;48.55;;;25.63;;
36415;SDS011;22447;44.530;18.620;2022-10-16T01:53:37;48.50;;;25.95;;
36415;SDS011;22447;44.530;18.620;2022-10-16T01:56:07;44.22;;;24.98;;
36415;SDS011;22447;44.530;18.620;2022-10-16T01:58:36;46.30;;;25.25;;
36415;SDS011;22447;44.530;18.620;2022-10-16T02:01:07;44.45;;;24.90;;
36415;SDS011;22447;44.530;18.620;2022-10-16T02:03:35;45.28;;;25.27;;
36415;SDS011;22447;44.530;18.620;2022-10-16T02:06:04;48.88;;;25.40;;
36415;SDS011;22447;44.530;18.620;2022-10-16T02:08:30;48.10;;;25.52;;
36415;SDS011;22447;44.530;18.620;2022-10-16T02:10:56;44.25;;;25.80;;
36415;SDS011;22447;44.530;18.620;2022-10-16T02:13:33;43.08;;;24.25;;
36415;SDS011;22447;44.530;18.620;2022-10-16T02:16:04;43.42;;;24.85;;
36415;SDS011;22447;44.530;18.620;2022-10-16T02:18:31;42.00;;;23.42;;
36415;SDS011;22447;44.530;18.620;2022-10-16T02:21:02;37.45;;;21.42;;
36415;SDS011;22447;44.530;18.620;2022-10-16T02:23:37;40.10;;;21.80;;
36415;SDS011;22447;44.530;18.620;2022-10-16T02:26:07;41.85;;;23.42;;
36415;SDS011;22447;44.530;18.620;2022-10-16T02:28:39;51.25;;;24.30;;
36415;SDS011;22447;44.530;18.620;2022-10-16T02:31:12;40.55;;;23.67;;
36415;SDS011;22447;44.530;18.620;2022-10-16T02:33:43;41.90;;;22.38;;
36415;SDS011;22447;44.530;18.620;2022-10-16T02:36:11;42.78;;;24.25;;
36415;SDS011;22447;44.530;18.620;2022-10-16T02:38:38;42.85;;;23.38;;
36415;SDS011;22447;44.530;18.620;2022-10-16T02:41:05;38.30;;;22.95;;
36415;SDS011;22447;44.530;18.620;2022-10-16T02:43:31;42.55;;;23.60;;
36415;SDS011;22447;44.530;18.620;2022-10-16T02:45:58;40.95;;;23.23;;
36415;SDS011;22447;44.530;18.620;2022-10-16T02:48:25;38.25;;;22.55;;
36415;SDS011;22447;44.530;18.620;2022-10-16T02:50:51;39.33;;;21.85;;
36415;SDS011;22447;44.530;18.620;2022-10-16T02:53:16;40.53;;;25.65;;
36415;SDS011;22447;44.530;18.620;2022-10-16T02:55:42;38.45;;;22.23;;
36415;SDS011;22447;44.530;18.620;2022-10-16T02:58:09;35.38;;;21.77;;
36415;SDS011;22447;44.530;18.620;2022-10-16T03:00:35;32.72;;;18.70;;
36415;SDS011;22447;44.530;18.620;2022-10-16T03:03:00;34.35;;;19.92;;
36415;SDS011;22447;44.530;18.620;2022-10-16T03:05:26;32.45;;;18.83;;
36415;SDS011;22447;44.530;18.620;2022-10-16T03:07:52;30.48;;;18.58;;
36415;SDS011;22447;44.530;18.620;2022-10-16T03:10:18;34.67;;;18.67;;
36415;SDS011;22447;44.530;18.620;2022-10-16T03:12:44;34.30;;;18.63;;
36415;SDS011;22447;44.530;18.620;2022-10-16T03:15:10;33.03;;;18.08;;
36415;SDS011;22447;44.530;18.620;2022-10-16T03:17:36;29.98;;;17.95;;
36415;SDS011;22447;44.530;18.620;2022-10-16T03:20:02;35.25;;;19.42;;
36415;SDS011;22447;44.530;18.620;2022-10-16T03:22:29;34.75;;;19.40;;
36415;SDS011;22447;44.530;18.620;2022-10-16T03:24:55;34.17;;;19.27;;
36415;SDS011;22447;44.530;18.620;2022-10-16T03:27:20;34.70;;;18.75;;
36415;SDS011;22447;44.530;18.620;2022-10-16T03:29:46;40.08;;;19.42;;
36415;SDS011;22447;44.530;18.620;2022-10-16T03:32:12;33.95;;;18.90;;
36415;SDS011;22447;44.530;18.620;2022-10-16T03:34:38;36.42;;;19.58;;
36415;SDS011;22447;44.530;18.620;2022-10-16T03:37:04;37.25;;;19.48;;
36415;SDS011;22447;44.530;18.620;2022-10-16T03:39:30;31.83;;;18.75;;
36415;SDS011;22447;44.530;18.620;2022-10-16T03:41:56;31.73;;;18.05;;
36415;SDS011;22447;44.530;18.620;2022-10-16T03:44:22;36.20;;;18.58;;
36415;SDS011;22447;44.530;18.620;2022-10-16T03:46:48;35.72;;;18.80;;
36415;SDS011;22447;44.530;18.620;2022-10-16T03:49:14;35.42;;;18.58;;
36415;SDS011;22447;44.530;18.620;2022-10-16T03:51:40;39.35;;;19.55;;
36415;SDS011;22447;44.530;18.620;2022-10-16T03:54:05;34.47;;;19.65;;
36415;SDS011;22447;44.530;18.620;2022-10-16T03:56:31;40.42;;;19.85;;
36415;SDS011;22447;44.530;18.620;2022-10-16T03:58:58;31.20;;;18.40;;
36415;SDS011;22447;44.530;18.620;2022-10-16T04:01:24;28.10;;;17.83;;
36415;SDS011;22447;44.530;18.620;2022-10-16T04:03:49;36.40;;;19.48;;
36415;SDS011;22447;44.530;18.620;2022-10-16T04:06:15;32.30;;;18.30;;
36415;SDS011;22447;44.530;18.620;2022-10-16T04:08:42;40.72;;;18.92;;
36415;SDS011;22447;44.530;18.620;2022-10-16T04:11:09;33.60;;;17.95;;
36415;SDS011;22447;44.530;18.620;2022-10-16T04:13:34;43.30;;;19.23;;
36415;SDS011;22447;44.530;18.620;2022-10-16T04:16:01;35.50;;;18.33;;
36415;SDS011;22447;44.530;18.620;2022-10-16T04:18:27;38.53;;;19.45;;
36415;SDS011;22447;44.530;18.620;2022-10-16T04:20:54;35.35;;;17.58;;
36415;SDS011;22447;44.530;18.620;2022-10-16T04:23:20;32.70;;;18.02;;
36415;SDS011;22447;44.530;18.620;2022-10-16T04:25:48;32.13;;;18.05;;
36415;SDS011;22447;44.530;18.620;2022-10-16T04:28:14;38.17;;;19.50;;
36415;SDS011;22447;44.530;18.620;2022-10-16T04:30:40;38.45;;;20.65;;
36415;SDS011;22447;44.530;18.620;2022-10-16T04:33:06;40.58;;;19.65;;
36415;SDS011;22447;44.530;18.620;2022-10-16T04:35:33;35.05;;;18.58;;
36415;SDS011;22447;44.530;18.620;2022-10-16T04:37:59;44.83;;;19.90;;
36415;SDS011;22447;44.530;18.620;2022-10-16T04:40:25;44.00;;;20.33;;
36415;SDS011;22447;44.530;18.620;2022-10-16T04:42:51;37.17;;;18.58;;
36415;SDS011;22447;44.530;18.620;2022-10-16T04:45:17;39.80;;;17.17;;
36415;SDS011;22447;44.530;18.620;2022-10-16T04:47:43;47.13;;;19.48;;
36415;SDS011;22447;44.530;18.620;2022-10-16T04:50:09;41.30;;;19.85;;
36415;SDS011;22447;44.530;18.620;2022-10-16T04:52:36;39.45;;;19.25;;
36415;SDS011;22447;44.530;18.620;2022-10-16T04:55:02;55.10;;;26.27;;
36415;SDS011;22447;44.530;18.620;2022-10-16T04:57:28;54.75;;;28.10;;
36415;SDS011;22447;44.530;18.620;2022-10-16T04:59:55;66.15;;;36.08;;
36415;SDS011;22447;44.530;18.620;2022-10-16T05:02:21;49.97;;;24.63;;
36415;SDS011;22447;44.530;18.620;2022-10-16T05:04:47;40.40;;;21.58;;
36415;SDS011;22447;44.530;18.620;2022-10-16T05:07:13;40.35;;;22.13;;
36415;SDS011;22447;44.530;18.620;2022-10-16T05:09:39;38.20;;;19.92;;
36415;SDS011;22447;44.530;18.620;2022-10-16T05:12:05;32.00;;;18.25;;
36415;SDS011;22447;44.530;18.620;2022-10-16T05:14:30;35.20;;;18.95;;
36415;SDS011;22447;44.530;18.620;2022-10-16T05:16:56;36.35;;;19.75;;
36415;SDS011;22447;44.530;18.620;2022-10-16T05:19:22;42.10;;;18.63;;
36415;SDS011;22447;44.530;18.620;2022-10-16T05:21:48;32.00;;;18.52;;
36415;SDS011;22447;44.530;18.620;2022-10-16T05:24:14;36.15;;;19.90;;
36415;SDS011;22447;44.530;18.620;2022-10-16T05:26:40;37.30;;;19.52;;
36415;SDS011;22447;44.530;18.620;2022-10-16T05:29:06;37.72;;;19.83;;
36415;SDS011;22447;44.530;18.620;2022-10-16T05:31:32;40.50;;;20.17;;
36415;SDS011;22447;44.530;18.620;2022-10-16T05:33:58;42.42;;;21.42;;
36415;SDS011;22447;44.530;18.620;2022-10-16T05:36:25;38.75;;;19.33;;
36415;SDS011;22447;44.530;18.620;2022-10-16T05:38:51;46.70;;;19.95;;
36415;SDS011;22447;44.530;18.620;2022-10-16T05:41:18;41.33;;;20.58;;
36415;SDS011;22447;44.530;18.620;2022-10-16T05:43:48;42.75;;;21.45;;
36415;SDS011;22447;44.530;18.620;2022-10-16T05:46:14;40.40;;;20.85;;
36415;SDS011;22447;44.530;18.620;2022-10-16T05:48:40;36.45;;;20.30;;
36415;SDS011;22447;44.530;18.620;2022-10-16T05:51:07;41.05;;;21.20;;
36415;SDS011;22447;44.530;18.620;2022-10-16T05:53:35;39.05;;;20.88;;
36415;SDS011;22447;44.530;18.620;2022-10-16T05:56:02;41.47;;;22.17;;
36415;SDS011;22447;44.530;18.620;2022-10-16T05:58:30;43.50;;;23.00;;
36415;SDS011;22447;44.530;18.620;2022-10-16T06:00:57;64.85;;;31.60;;
36415;SDS011;22447;44.530;18.620;2022-10-16T06:03:27;41.03;;;23.88;;
36415;SDS011;22447;44.530;18.620;2022-10-16T06:05:53;49.40;;;25.27;;
36415;SDS011;22447;44.530;18.620;2022-10-16T06:08:20;54.65;;;29.50;;
36415;SDS011;22447;44.530;18.620;2022-10-16T06:10:47;42.63;;;23.50;;
36415;SDS011;22447;44.530;18.620;2022-10-16T06:13:13;47.25;;;25.13;;
36415;SDS011;22447;44.530;18.620;2022-10-16T06:15:40;50.15;;;25.60;;
36415;SDS011;22447;44.530;18.620;2022-10-16T06:18:08;44.65;;;24.13;;
36415;SDS011;22447;44.530;18.620;2022-10-16T06:20:34;44.95;;;24.52;;
36415;SDS011;22447;44.530;18.620;2022-10-16T06:23:00;46.65;;;26.20;;
36415;SDS011;22447;44.530;18.620;2022-10-16T06:25:27;43.60;;;24.75;;
36415;SDS011;22447;44.530;18.620;2022-10-16T06:27:53;46.55;;;25.52;;
36415;SDS011;22447;44.530;18.620;2022-10-16T06:30:18;44.80;;;24.48;;
36415;SDS011;22447;44.530;18.620;2022-10-16T06:32:44;43.72;;;24.08;;
36415;SDS011;22447;44.530;18.620;2022-10-16T06:35:10;36.10;;;22.70;;
36415;SDS011;22447;44.530;18.620;2022-10-16T06:37:36;43.60;;;24.13;;
36415;SDS011;22447;44.530;18.620;2022-10-16T06:40:02;42.33;;;24.48;;
36415;SDS011;22447;44.530;18.620;2022-10-16T06:42:29;45.40;;;25.02;;
36415;SDS011;22447;44.530;18.620;2022-10-16T06:44:55;46.67;;;23.77;;
36415;SDS011;22447;44.530;18.620;2022-10-16T06:47:21;37.60;;;22.77;;
36415;SDS011;22447;44.530;18.620;2022-10-16T06:49:47;47.55;;;22.50;;
36415;SDS011;22447;44.530;18.620;2022-10-16T06:52:13;44.13;;;23.35;;
36415;SDS011;22447;44.530;18.620;2022-10-16T06:54:39;45.17;;;23.05;;
36415;SDS011;22447;44.530;18.620;2022-10-16T06:57:05;42.75;;;21.60;;
36415;SDS011;22447;44.530;18.620;2022-10-16T06:59:30;44.03;;;21.98;;
36415;SDS011;22447;44.530;18.620;2022-10-16T07:01:56;37.80;;;22.58;;
36415;SDS011;22447;44.530;18.620;2022-10-16T07:04:22;39.05;;;23.10;;
36415;SDS011;22447;44.530;18.620;2022-10-16T07:06:48;43.05;;;24.63;;
36415;SDS011;22447;44.530;18.620;2022-10-16T07:09:14;39.50;;;23.67;;
36415;SDS011;22447;44.530;18.620;2022-10-16T07:11:40;41.47;;;24.00;;
36415;SDS011;22447;44.530;18.620;2022-10-16T07:14:12;42.03;;;24.98;;
36415;SDS011;22447;44.530;18.620;2022-10-16T07:16:41;39.63;;;22.73;;
36415;SDS011;22447;44.530;18.620;2022-10-16T07:19:07;41.53;;;25.02;;
36415;SDS011;22447;44.530;18.620;2022-10-16T07:21:34;38.33;;;23.30;;
36415;SDS011;22447;44.530;18.620;2022-10-16T07:24:04;40.38;;;23.27;;
36415;SDS011;22447;44.530;18.620;2022-10-16T07:26:33;37.10;;;21.75;;
36415;SDS011;22447;44.530;18.620;2022-10-16T07:29:01;39.47;;;23.65;;
36415;SDS011;22447;44.530;18.620;2022-10-16T07:31:28;40.83;;;22.73;;
36415;SDS011;22447;44.530;18.620;2022-10-16T07:33:54;37.30;;;20.63;;
36415;SDS011;22447;44.530;18.620;2022-10-16T07:36:22;31.60;;;20.00;;
36415;SDS011;22447;44.530;18.620;2022-10-16T07:38:48;30.63;;;19.25;;
36415;SDS011;22447;44.530;18.620;2022-10-16T07:41:15;34.72;;;18.17;;
36415;SDS011;22447;44.530;18.620;2022-10-16T07:43:46;31.70;;;16.75;;
36415;SDS011;22447;44.530;18.620;2022-10-16T07:46:13;28.70;;;15.70;;
36415;SDS011;22447;44.530;18.620;2022-10-16T07:48:39;27.58;;;17.83;;
36415;SDS011;22447;44.530;18.620;2022-10-16T07:51:06;27.60;;;16.17;;
36415;SDS011;22447;44.530;18.620;2022-10-16T07:53:32;28.55;;;16.95;;
36415;SDS011;22447;44.530;18.620;2022-10-16T07:55:59;28.40;;;17.15;;
36415;SDS011;22447;44.530;18.620;2022-10-16T07:58:29;34.22;;;17.48;;
36415;SDS011;22447;44.530;18.620;2022-10-16T08:00:55;24.67;;;17.00;;
36415;SDS011;22447;44.530;18.620;2022-10-16T08:03:22;25.05;;;16.25;;
36415;SDS011;22447;44.530;18.620;2022-10-16T08:05:48;27.17;;;16.65;;
36415;SDS011;22447;44.530;18.620;2022-10-16T08:08:16;28.48;;;17.05;;
36415;SDS011;22447;44.530;18.620;2022-10-16T08:10:43;39.22;;;17.25;;
36415;SDS011;22447;44.530;18.620;2022-10-16T08:13:09;31.00;;;17.33;;
36415;SDS011;22447;44.530;18.620;2022-10-16T08:15:35;26.58;;;16.65;;
36415;SDS011;22447;44.530;18.620;2022-10-16T08:18:02;23.55;;;15.73;;
36415;SDS011;22447;44.530;18.620;2022-10-16T08:20:29;25.70;;;16.08;;
36415;SDS011;22447;44.530;18.620;2022-10-16T08:23:01;26.73;;;16.30;;
36415;SDS011;22447;44.530;18.620;2022-10-16T08:25:27;30.83;;;16.08;;
36415;SDS011;22447;44.530;18.620;2022-10-16T08:27:54;24.90;;;16.75;;
36415;SDS011;22447;44.530;18.620;2022-10-16T08:30:21;29.20;;;15.90;;
36415;SDS011;22447;44.530;18.620;2022-10-16T08:32:48;25.30;;;16.08;;
36415;SDS011;22447;44.530;18.620;2022-10-16T08:35:14;23.23;;;15.90;;
36415;SDS011;22447;44.530;18.620;2022-10-16T08:37:41;26.20;;;16.48;;
36415;SDS011;22447;44.530;18.620;2022-10-16T08:40:13;26.13;;;17.05;;
36415;SDS011;22447;44.530;18.620;2022-10-16T08:45:31;28.48;;;18.42;;
36415;SDS011;22447;44.530;18.620;2022-10-16T08:50:47;26.30;;;17.42;;
36415;SDS011;22447;44.530;18.620;2022-10-16T08:53:17;25.17;;;16.17;;
36415;SDS011;22447;44.530;18.620;2022-10-16T08:55:52;29.02;;;17.08;;
36415;SDS011;22447;44.530;18.620;2022-10-16T08:58:20;24.25;;;15.38;;
36415;SDS011;22447;44.530;18.620;2022-10-16T09:00:58;24.13;;;15.63;;
36415;SDS011;22447;44.530;18.620;2022-10-16T09:11:48;23.00;;;15.50;;
36415;SDS011;22447;44.530;18.620;2022-10-16T09:17:22;23.33;;;13.70;;
36415;SDS011;22447;44.530;18.620;2022-10-16T09:20:12;18.67;;;13.13;;
36415;SDS011;22447;44.530;18.620;2022-10-16T09:22:45;20.83;;;12.57;;
36415;SDS011;22447;44.530;18.620;2022-10-16T09:25:13;22.70;;;14.70;;
36415;SDS011;22447;44.530;18.620;2022-10-16T09:27:40;22.88;;;13.80;;
36415;SDS011;22447;44.530;18.620;2022-10-16T09:32:40;24.65;;;15.27;;
36415;SDS011;22447;44.530;18.620;2022-10-16T09:35:15;23.50;;;14.63;;
36415;SDS011;22447;44.530;18.620;2022-10-16T09:37:47;24.98;;;14.70;;
36415;SDS011;22447;44.530;18.620;2022-10-16T09:40:31;21.83;;;13.82;;
36415;SDS011;22447;44.530;18.620;2022-10-16T09:45:31;17.60;;;12.10;;
36415;SDS011;22447;44.530;18.620;2022-10-16T09:47:58;20.00;;;12.25;;
36415;SDS011;22447;44.530;18.620;2022-10-16T09:50:35;22.23;;;11.45;;
36415;SDS011;22447;44.530;18.620;2022-10-16T09:53:19;20.63;;;11.63;;
36415;SDS011;22447;44.530;18.620;2022-10-16T09:55:56;17.55;;;10.93;;
36415;SDS011;22447;44.530;18.620;2022-10-16T09:58:22;15.15;;;10.98;;
36415;SDS011;22447;44.530;18.620;2022-10-16T10:00:53;18.17;;;11.88;;
36415;SDS011;22447;44.530;18.620;2022-10-16T10:06:24;20.60;;;12.00;;
36415;SDS011;22447;44.530;18.620;2022-10-16T10:08:58;20.23;;;12.02;;
36415;SDS011;22447;44.530;18.620;2022-10-16T10:11:36;20.25;;;12.20;;
36415;SDS011;22447;44.530;18.620;2022-10-16T10:14:23;18.48;;;10.43;;
36415;SDS011;22447;44.530;18.620;2022-10-16T10:16:52;18.70;;;10.98;;
36415;SDS011;22447;44.530;18.620;2022-10-16T10:19:27;28.67;;;12.32;;
36415;SDS011;22447;44.530;18.620;2022-10-16T10:21:53;18.00;;;10.73;;
36415;SDS011;22447;44.530;18.620;2022-10-16T10:24:19;20.65;;;10.88;;
36415;SDS011;22447;44.530;18.620;2022-10-16T10:26:57;20.13;;;11.90;;
36415;SDS011;22447;44.530;18.620;2022-10-16T10:32:25;16.38;;;11.70;;
36415;SDS011;22447;44.530;18.620;2022-10-16T10:45:47;17.25;;;11.10;;
36415;SDS011;22447;44.530;18.620;2022-10-16T10:50:51;14.93;;;10.10;;
36415;SDS011;22447;44.530;18.620;2022-10-16T10:53:45;16.27;;;9.98;;
36415;SDS011;22447;44.530;18.620;2022-10-16T10:56:29;16.83;;;10.55;;
36415;SDS011;22447;44.530;18.620;2022-10-16T11:11:03;12.68;;;8.40;;
36415;SDS011;22447;44.530;18.620;2022-10-16T11:13:17;16.00;;;11.15;;
36415;SDS011;22447;44.530;18.620;2022-10-16T11:15:48;16.33;;;9.70;;
36415;SDS011;22447;44.530;18.620;2022-10-16T11:21:31;13.90;;;7.88;;
36415;SDS011;22447;44.530;18.620;2022-10-16T11:26:39;13.68;;;8.98;;
36415;SDS011;22447;44.530;18.620;2022-10-16T11:29:10;16.92;;;10.30;;
36415;SDS011;22447;44.530;18.620;2022-10-16T11:31:49;11.63;;;8.38;;
36415;SDS011;22447;44.530;18.620;2022-10-16T11:37:07;13.45;;;10.88;;
36415;SDS011;22447;44.530;18.620;2022-10-16T11:39:47;18.30;;;10.02;;
36415;SDS011;22447;44.530;18.620;2022-10-16T11:42:30;12.85;;;9.55;;
36415;SDS011;22447;44.530;18.620;2022-10-16T11:45:07;13.80;;;9.63;;
36415;SDS011;22447;44.530;18.620;2022-10-16T11:47:48;11.80;;;9.50;;
36415;SDS011;22447;44.530;18.620;2022-10-16T11:50:23;14.43;;;10.35;;
36415;SDS011;22447;44.530;18.620;2022-10-16T11:55:54;14.35;;;9.95;;
36415;SDS011;22447;44.530;18.620;2022-10-16T11:58:27;14.50;;;10.05;;
36415;SDS011;22447;44.530;18.620;2022-10-16T12:09:29;15.18;;;9.75;;
36415;SDS011;22447;44.530;18.620;2022-10-16T12:11:57;15.75;;;10.27;;
36415;SDS011;22447;44.530;18.620;2022-10-16T12:14:33;19.52;;;11.45;;
36415;SDS011;22447;44.530;18.620;2022-10-16T12:22:53;16.38;;;10.77;;
36415;SDS011;22447;44.530;18.620;2022-10-16T12:25:23;14.73;;;10.43;;
36415;SDS011;22447;44.530;18.620;2022-10-16T12:27:59;15.95;;;10.50;;
36415;SDS011;22447;44.530;18.620;2022-10-16T12:30:26;14.52;;;9.43;;
36415;SDS011;22447;44.530;18.620;2022-10-16T12:32:55;17.88;;;11.00;;
36415;SDS011;22447;44.530;18.620;2022-10-16T12:35:24;17.48;;;11.10;;
36415;SDS011;22447;44.530;18.620;2022-10-16T12:37:52;14.80;;;10.68;;
36415;SDS011;22447;44.530;18.620;2022-10-16T12:40:30;14.48;;;9.85;;
36415;SDS011;22447;44.530;18.620;2022-10-16T12:42:59;16.10;;;10.73;;
36415;SDS011;22447;44.530;18.620;2022-10-16T12:45:37;17.63;;;10.98;;
36415;SDS011;22447;44.530;18.620;2022-10-16T12:48:04;14.65;;;10.25;;
36415;SDS011;22447;44.530;18.620;2022-10-16T12:50:47;17.73;;;11.30;;
36415;SDS011;22447;44.530;18.620;2022-10-16T12:53:24;18.05;;;11.52;;
36415;SDS011;22447;44.530;18.620;2022-10-16T13:04:28;15.50;;;10.80;;
36415;SDS011;22447;44.530;18.620;2022-10-16T13:09:54;19.33;;;10.73;;
36415;SDS011;22447;44.530;18.620;2022-10-16T13:18:19;13.48;;;10.55;;
36415;SDS011;22447;44.530;18.620;2022-10-16T13:20:56;17.23;;;11.00;;
36415;SDS011;22447;44.530;18.620;2022-10-16T13:29:00;16.17;;;11.23;;
36415;SDS011;22447;44.530;18.620;2022-10-16T13:31:26;33.22;;;15.48;;
36415;SDS011;22447;44.530;18.620;2022-10-16T13:33:55;16.60;;;11.48;;
36415;SDS011;22447;44.530;18.620;2022-10-16T13:36:34;18.58;;;10.27;;
36415;SDS011;22447;44.530;18.620;2022-10-16T13:39:19;14.20;;;10.23;;
36415;SDS011;22447;44.530;18.620;2022-10-16T13:44:35;15.38;;;11.30;;
36415;SDS011;22447;44.530;18.620;2022-10-16T13:47:10;17.63;;;10.73;;
36415;SDS011;22447;44.530;18.620;2022-10-16T13:49:45;19.30;;;11.48;;
36415;SDS011;22447;44.530;18.620;2022-10-16T13:52:16;19.77;;;11.82;;
36415;SDS011;22447;44.530;18.620;2022-10-16T13:54:46;18.58;;;12.13;;
36415;SDS011;22447;44.530;18.620;2022-10-16T13:57:16;17.45;;;11.40;;
36415;SDS011;22447;44.530;18.620;2022-10-16T13:59:42;19.25;;;12.52;;
36415;SDS011;22447;44.530;18.620;2022-10-16T14:02:31;14.05;;;10.50;;
36415;SDS011;22447;44.530;18.620;2022-10-16T14:05:07;19.05;;;11.80;;
36415;SDS011;22447;44.530;18.620;2022-10-16T14:07:35;16.67;;;10.65;;
36415;SDS011;22447;44.530;18.620;2022-10-16T14:10:06;17.10;;;11.70;;
36415;SDS011;22447;44.530;18.620;2022-10-16T14:12:45;18.25;;;12.05;;
36415;SDS011;22447;44.530;18.620;2022-10-16T14:15:23;16.75;;;11.30;;
36415;SDS011;22447;44.530;18.620;2022-10-16T14:17:50;22.98;;;11.73;;
36415;SDS011;22447;44.530;18.620;2022-10-16T14:20:18;17.15;;;11.55;;
36415;SDS011;22447;44.530;18.620;2022-10-16T14:22:46;20.63;;;12.65;;
36415;SDS011;22447;44.530;18.620;2022-10-16T14:28:02;18.67;;;11.98;;
36415;SDS011;22447;44.530;18.620;2022-10-16T14:30:32;22.17;;;11.50;;
36415;SDS011;22447;44.530;18.620;2022-10-16T14:33:00;17.67;;;11.37;;
36415;SDS011;22447;44.530;18.620;2022-10-16T14:35:35;18.80;;;12.07;;
36415;SDS011;22447;44.530;18.620;2022-10-16T14:38:04;19.45;;;12.18;;
36415;SDS011;22447;44.530;18.620;2022-10-16T14:40:35;18.02;;;12.02;;
36415;SDS011;22447;44.530;18.620;2022-10-16T14:43:03;21.15;;;14.35;;
36415;SDS011;22447;44.530;18.620;2022-10-16T14:45:30;20.25;;;12.32;;
36415;SDS011;22447;44.530;18.620;2022-10-16T14:48:00;22.02;;;13.60;;
36415;SDS011;22447;44.530;18.620;2022-10-16T14:50:31;33.35;;;13.82;;
36415;SDS011;22447;44.530;18.620;2022-10-16T14:52:58;28.98;;;17.05;;
36415;SDS011;22447;44.530;18.620;2022-10-16T14:55:24;46.40;;;27.95;;
36415;SDS011;22447;44.530;18.620;2022-10-16T14:57:50;62.55;;;32.70;;
36415;SDS011;22447;44.530;18.620;2022-10-16T15:00:18;78.60;;;44.80;;
36415;SDS011;22447;44.530;18.620;2022-10-16T15:02:47;74.78;;;43.95;;
36415;SDS011;22447;44.530;18.620;2022-10-16T15:05:21;79.38;;;45.30;;
36415;SDS011;22447;44.530;18.620;2022-10-16T15:07:51;77.50;;;43.72;;
36415;SDS011;22447;44.530;18.620;2022-10-16T15:10:20;82.43;;;48.25;;
36415;SDS011;22447;44.530;18.620;2022-10-16T15:12:48;54.33;;;32.00;;
36415;SDS011;22447;44.530;18.620;2022-10-16T15:17:49;63.17;;;33.55;;
36415;SDS011;22447;44.530;18.620;2022-10-16T15:20:21;59.60;;;33.65;;
36415;SDS011;22447;44.530;18.620;2022-10-16T15:22:51;50.03;;;29.30;;
36415;SDS011;22447;44.530;18.620;2022-10-16T15:28:20;154.10;;;69.03;;
36415;SDS011;22447;44.530;18.620;2022-10-16T15:30:49;169.32;;;72.95;;
36415;SDS011;22447;44.530;18.620;2022-10-16T15:33:19;123.88;;;57.13;;
36415;SDS011;22447;44.530;18.620;2022-10-16T15:35:49;94.13;;;46.58;;
36415;SDS011;22447;44.530;18.620;2022-10-16T15:38:16;103.72;;;52.22;;
36415;SDS011;22447;44.530;18.620;2022-10-16T15:40:43;89.40;;;46.47;;
36415;SDS011;22447;44.530;18.620;2022-10-16T15:43:09;73.88;;;41.17;;
36415;SDS011;22447;44.530;18.620;2022-10-16T15:45:36;53.97;;;32.38;;
36415;SDS011;22447;44.530;18.620;2022-10-16T15:48:02;177.07;;;99.82;;
36415;SDS011;22447;44.530;18.620;2022-10-16T15:50:29;67.55;;;40.63;;
36415;SDS011;22447;44.530;18.620;2022-10-16T15:52:56;64.70;;;40.88;;
36415;SDS011;22447;44.530;18.620;2022-10-16T15:55:22;29.75;;;21.90;;
36415;SDS011;22447;44.530;18.620;2022-10-16T15:57:48;87.15;;;52.80;;
36415;SDS011;22447;44.530;18.620;2022-10-16T16:00:17;100.15;;;60.35;;
36415;SDS011;22447;44.530;18.620;2022-10-16T16:02:53;217.15;;;123.15;;
36415;SDS011;22447;44.530;18.620;2022-10-16T16:05:38;197.10;;;104.63;;
36415;SDS011;22447;44.530;18.620;2022-10-16T16:08:06;328.35;;;161.73;;
36415;SDS011;22447;44.530;18.620;2022-10-16T16:10:32;158.50;;;79.72;;
36415;SDS011;22447;44.530;18.620;2022-10-16T16:12:58;119.15;;;63.42;;
36415;SDS011;22447;44.530;18.620;2022-10-16T16:15:24;77.03;;;45.55;;
36415;SDS011;22447;44.530;18.620;2022-10-16T16:17:50;51.15;;;33.20;;
36415;SDS011;22447;44.530;18.620;2022-10-16T16:20:16;49.30;;;31.60;;
36415;SDS011;22447;44.530;18.620;2022-10-16T16:22:42;42.13;;;26.42;;
36415;SDS011;22447;44.530;18.620;2022-10-16T16:25:08;39.45;;;26.60;;
36415;SDS011;22447;44.530;18.620;2022-10-16T16:27:34;42.65;;;27.25;;